Pride — ZDFD7 — position and weather

sailwx.info

Track history (hours):
 
Tides and Currents Weather Stations Pressure Air Temp Water Temp Dewpoint Dewpoint Depression Visibility Wind Speed Wind Dir Waves Ship Positions

Pride

Last reported at 2014-Jul-29 19:29 UTC. Time now 2014-Aug-01 05:45 UTC.
Position N 59°24' E 006°07'.

Length 88 m; draft 3.3 m.

Type: Ship. MMSI: 236166000.

Date/timePositionNaut miles runAvg speedWind from/ knotsBaromVisibWave heightAir tempDewpointWater temp
2014-Jul-29 19:29N 59°24' E 006°07'910.1
2014-Jul-29 18:33N 59°19' E 005°52'1010.3
2014-Jul-29 17:33N 59°12' E 005°36'10 9.9
2014-Jul-29 16:33N 59°05' E 005°22'9 9.4
2014-Jul-29 15:33N 58°56' E 005°20'10 9.8
2014-Jul-29 14:33N 58°46' E 005°21'19 9.3
2014-Jul-29 12:33N 58°30' E 005°37'10 9.6
2014-Jul-29 11:33N 58°23' E 005°51'8 8.4
2014-Jul-29 10:33N 58°17' E 006°03'8 8.4
2014-Jul-29 09:33N 58°14' E 006°17'  
2014-Jul-26 07:32N 58°08' E 006°27'118 8.9
2014-Jul-25 18:19N 57°49' E 010°06'7 9.5
2014-Jul-25 17:33N 57°49' E 010°19'9 9.3
2014-Jul-25 16:34N 57°48' E 010°37'9 8.7
2014-Jul-25 15:33N 57°45' E 010°52'9 8.9
2014-Jul-25 14:33N 57°39' E 011°04'9 8.9
2014-Jul-25 13:34N 57°33' E 011°17'9 8.9
2014-Jul-25 12:33N 57°26' E 011°27'9 9.4
2014-Jul-25 11:33N 57°17' E 011°33'9 9.5
2014-Jul-25 10:33N 57°08' E 011°39'10 9.6
2014-Jul-25 09:33N 56°59' E 011°45'9 9.2
2014-Jul-25 08:32N 56°50' E 011°51'9 9.5
2014-Jul-25 07:34N 56°42' E 011°56'10 9.4
2014-Jul-25 06:33N 56°32' E 011°59'9 9.0
2014-Jul-25 05:34N 56°24' E 012°03'8 8.4
2014-Jul-25 04:33N 56°16' E 012°10'9 9.2
2014-Jul-25 03:33N 56°11' E 012°24'1110.6
2014-Jul-25 02:34N 56°04' E 012°38'10 9.7
2014-Jul-25 01:34N 55°55' E 012°44'9 9.4
2014-Jul-25 00:33N 55°46' E 012°42'10 9.9
2014-Jul-24 23:34N 55°36' E 012°42'9 9.3
2014-Jul-24 22:33N 55°27' E 012°42'9 8.5
2014-Jul-24 21:34N 55°18' E 012°44'9 9.3
2014-Jul-24 20:33N 55°14' E 012°59'9 9.3
2014-Jul-24 19:33N 55°11' E 013°14'9 9.4
2014-Jul-24 18:33N 55°07' E 013°29'9 9.4
2014-Jul-24 17:34N 55°03' E 013°44'9 9.2
2014-Jul-24 16:33N 54°59' E 013°58'9 9.0
2014-Jul-24 15:31N 54°55' E 014°13'9 9.2
2014-Jul-24 14:32N 54°53' E 014°29'9 9.4
2014-Jul-24 13:33N 54°52' E 014°44'9 9.5
2014-Jul-24 12:33N 54°52' E 015°01'9 9.5
2014-Jul-24 11:34N 54°51' E 015°17'9 9.4
2014-Jul-24 10:34N 54°51' E 015°34'10 9.5
2014-Jul-24 09:33N 54°50' E 015°50'9 9.4
2014-Jul-24 08:34N 54°50' E 016°06'10 9.5
2014-Jul-24 07:34N 54°49' E 016°23'10 9.7
2014-Jul-24 06:33N 54°50' E 016°40'10 9.8
2014-Jul-24 05:33N 54°52' E 016°56'1010.0
2014-Jul-24 04:34N 54°54' E 017°13'10 9.9
2014-Jul-24 03:34N 54°55' E 017°30'10 9.8
2014-Jul-24 02:33N 54°56' E 017°47'10 9.7
2014-Jul-24 01:33N 54°56' E 018°04'10 9.9
2014-Jul-24 00:33N 54°57' E 018°22'10 9.6
2014-Jul-23 23:33N 54°56' E 018°38'10 9.7
2014-Jul-23 22:33N 54°50' E 018°52'8 8.2
2014-Jul-23 21:33N 54°42' E 018°58'9 9.2
2014-Jul-23 20:33N 54°34' E 018°52'8 8.2
2014-Jul-23 19:33N 54°32' E 018°38'3 3.2
2014-Jul-23 18:33N 54°32' E 018°33'0 0.0
2014-Jul-23 17:29N 54°32' E 018°33'0 0.0
2014-Jul-23 16:31N 54°32' E 018°33'0 0.0
2014-Jul-23 15:33N 54°32' E 018°33'0 0.0
2014-Jul-23 14:32N 54°32' E 018°33'0 0.0
2014-Jul-23 13:31N 54°32' E 018°33'0 0.0
2014-Jul-23 12:33N 54°32' E 018°33'0 0.0
2014-Jul-23 11:32N 54°32' E 018°33'0 0.0
2014-Jul-23 10:30N 54°32' E 018°33'0 0.0
2014-Jul-23 09:32N 54°32' E 018°33'0 0.0
2014-Jul-23 08:33N 54°32' E 018°33'1 0.6
2014-Jul-23 07:33N 54°32' E 018°34'9 9.5
2014-Jul-23 06:33N 54°34' E 018°50'10 9.5
2014-Jul-23 05:33N 54°42' E 018°57'9 8.6
2014-Jul-23 04:33N 54°50' E 018°50'10 9.7
2014-Jul-23 03:33N 54°55' E 018°36'9 9.1
2014-Jul-23 02:34N 54°55' E 018°21'9 9.3
2014-Jul-23 01:33N 54°54' E 018°04'9 9.2
2014-Jul-23 00:33N 54°54' E 017°48'9 9.3
2014-Jul-22 23:33N 54°53' E 017°32'9 9.3
2014-Jul-22 22:33N 54°52' E 017°16'22 9.3
2014-Jul-22 20:11N 54°47' E 016°39'6 9.4
2014-Jul-22 19:30N 54°45' E 016°28'9 9.5
2014-Jul-22 18:34N 54°41' E 016°14'9 9.4
2014-Jul-22 17:34N 54°36' E 016°00'18 9.1
2014-Jul-22 15:33N 54°27' E 015°33'9 8.9
2014-Jul-22 14:33N 54°23' E 015°20'9 9.3
2014-Jul-22 13:34N 54°18' E 015°06'9 9.5
2014-Jul-22 12:34N 54°13' E 014°53'10 9.6
2014-Jul-22 11:34N 54°08' E 014°38'10 9.7
2014-Jul-22 10:34N 54°03' E 014°24'8 8.1
2014-Jul-22 09:34N 53°57' E 014°16'6 6.3
2014-Jul-22 08:34N 53°50' E 014°18'9 9.4
2014-Jul-22 07:34N 53°43' E 014°28'13 9.4
2014-Jul-22 06:08N 53°31' E 014°38'5 8.1
2014-Jul-22 05:33N 53°26' E 014°36'2 0.3
2014-Jul-22 00:22N 53°25' E 014°36'0 0.0
2014-Jul-21 13:10N 53°25' E 014°36'0 0.0
2014-Jul-21 08:31N 53°25' E 014°36'0 0.0
2014-Jul-21 07:22N 53°25' E 014°36'0 0.0
2014-Jul-21 06:33N 53°25' E 014°36'0 0.0
2014-Jul-21 05:32N 53°25' E 014°36'0 0.0
2014-Jul-21 04:31N 53°25' E 014°36'0 0.0
2014-Jul-21 03:33N 53°25' E 014°36'0 0.0
2014-Jul-21 02:30N 53°25' E 014°36'0 0.0
2014-Jul-21 01:32N 53°25' E 014°36'0 0.0
2014-Jul-21 00:29N 53°25' E 014°36'0 0.0
2014-Jul-20 23:31N 53°25' E 014°36'0 0.0
2014-Jul-20 22:17N 53°25' E 014°36'0 0.0
2014-Jul-20 21:33N 53°25' E 014°36'0 0.0
2014-Jul-20 20:32N 53°25' E 014°36'0 0.0
2014-Jul-20 19:32N 53°25' E 014°36'0 0.0
2014-Jul-20 18:33N 53°25' E 014°36'0 0.0
2014-Jul-20 17:30N 53°25' E 014°36'0 0.0
2014-Jul-20 16:24N 53°25' E 014°36'0 0.0
2014-Jul-20 15:32N 53°25' E 014°36'0 0.0
2014-Jul-20 14:30N 53°25' E 014°36'0 0.0
2014-Jul-20 13:33N 53°25' E 014°36'0 0.0
2014-Jul-20 12:20N 53°25' E 014°36'3 4.2
2014-Jul-20 11:34N 53°28' E 014°36'9 8.3
2014-Jul-20 10:31N 53°37' E 014°35'9 9.2
2014-Jul-20 09:33N 53°44' E 014°27'9 9.1
2014-Jul-20 08:33N 53°51' E 014°17'7 7.3
2014-Jul-20 07:33N 53°58' E 014°16'9 9.1
2014-Jul-20 06:33N 54°07' E 014°13'9 8.6
2014-Jul-20 05:33N 54°15' E 014°08'9 8.7
2014-Jul-20 04:33N 54°21' E 013°57'9 8.9
2014-Jul-20 03:33N 54°29' E 013°49'9 9.1
2014-Jul-20 02:33N 54°36' E 013°42'9 9.0
2014-Jul-20 01:33N 54°44' E 013°34'9 9.2
2014-Jul-20 00:33N 54°52' E 013°26'10 9.5
2014-Jul-19 23:33N 55°00' E 013°17'10 9.7
2014-Jul-19 22:33N 55°07' E 013°05'9 9.5
2014-Jul-19 21:33N 55°14' E 012°53'9 9.4
2014-Jul-19 20:33N 55°18' E 012°38'9 8.9
2014-Jul-19 19:33N 55°27' E 012°40'  
Track history (hours):
 
Tides and Currents Weather Stations Pressure Air Temp Water Temp Dewpoint Dewpoint Depression Visibility Wind Speed Wind Dir Waves Ship Positions

Pride

Last reported at 2014-Jul-29 19:29 UTC. Time now 2014-Aug-01 05:45 UTC.
Position N 59°24' E 006°07'.

Length 88 m; draft 3.3 m.

Type: Ship. MMSI: 236166000.

Date/timePositionNaut miles runAvg speedWind from/ knotsBaromVisibWave heightAir tempDewpointWater temp
2014-Jul-29 19:29N 59°24' E 006°07'910.1
2014-Jul-29 18:33N 59°19' E 005°52'1010.3
2014-Jul-29 17:33N 59°12' E 005°36'10 9.9
2014-Jul-29 16:33N 59°05' E 005°22'9 9.4
2014-Jul-29 15:33N 58°56' E 005°20'10 9.8
2014-Jul-29 14:33N 58°46' E 005°21'19 9.3
2014-Jul-29 12:33N 58°30' E 005°37'10 9.6
2014-Jul-29 11:33N 58°23' E 005°51'8 8.4
2014-Jul-29 10:33N 58°17' E 006°03'8 8.4
2014-Jul-29 09:33N 58°14' E 006°17'  
2014-Jul-26 07:32N 58°08' E 006°27'118 8.9
2014-Jul-25 18:19N 57°49' E 010°06'7 9.5
2014-Jul-25 17:33N 57°49' E 010°19'9 9.3
2014-Jul-25 16:34N 57°48' E 010°37'9 8.7
2014-Jul-25 15:33N 57°45' E 010°52'9 8.9
2014-Jul-25 14:33N 57°39' E 011°04'9 8.9
2014-Jul-25 13:34N 57°33' E 011°17'9 8.9
2014-Jul-25 12:33N 57°26' E 011°27'9 9.4
2014-Jul-25 11:33N 57°17' E 011°33'9 9.5
2014-Jul-25 10:33N 57°08' E 011°39'10 9.6
2014-Jul-25 09:33N 56°59' E 011°45'9 9.2
2014-Jul-25 08:32N 56°50' E 011°51'9 9.5
2014-Jul-25 07:34N 56°42' E 011°56'10 9.4
2014-Jul-25 06:33N 56°32' E 011°59'9 9.0
2014-Jul-25 05:34N 56°24' E 012°03'8 8.4
2014-Jul-25 04:33N 56°16' E 012°10'9 9.2
2014-Jul-25 03:33N 56°11' E 012°24'1110.6
2014-Jul-25 02:34N 56°04' E 012°38'10 9.7
2014-Jul-25 01:34N 55°55' E 012°44'9 9.4
2014-Jul-25 00:33N 55°46' E 012°42'10 9.9
2014-Jul-24 23:34N 55°36' E 012°42'9 9.3
2014-Jul-24 22:33N 55°27' E 012°42'9 8.5
2014-Jul-24 21:34N 55°18' E 012°44'9 9.3
2014-Jul-24 20:33N 55°14' E 012°59'9 9.3
2014-Jul-24 19:33N 55°11' E 013°14'9 9.4
2014-Jul-24 18:33N 55°07' E 013°29'9 9.4
2014-Jul-24 17:34N 55°03' E 013°44'9 9.2
2014-Jul-24 16:33N 54°59' E 013°58'9 9.0
2014-Jul-24 15:31N 54°55' E 014°13'9 9.2
2014-Jul-24 14:32N 54°53' E 014°29'9 9.4
2014-Jul-24 13:33N 54°52' E 014°44'9 9.5
2014-Jul-24 12:33N 54°52' E 015°01'9 9.5
2014-Jul-24 11:34N 54°51' E 015°17'9 9.4
2014-Jul-24 10:34N 54°51' E 015°34'10 9.5
2014-Jul-24 09:33N 54°50' E 015°50'9 9.4
2014-Jul-24 08:34N 54°50' E 016°06'10 9.5
2014-Jul-24 07:34N 54°49' E 016°23'10 9.7
2014-Jul-24 06:33N 54°50' E 016°40'10 9.8
2014-Jul-24 05:33N 54°52' E 016°56'1010.0
2014-Jul-24 04:34N 54°54' E 017°13'10 9.9
2014-Jul-24 03:34N 54°55' E 017°30'10 9.8
2014-Jul-24 02:33N 54°56' E 017°47'10 9.7
2014-Jul-24 01:33N 54°56' E 018°04'10 9.9
2014-Jul-24 00:33N 54°57' E 018°22'10 9.6
2014-Jul-23 23:33N 54°56' E 018°38'10 9.7
2014-Jul-23 22:33N 54°50' E 018°52'8 8.2
2014-Jul-23 21:33N 54°42' E 018°58'9 9.2
2014-Jul-23 20:33N 54°34' E 018°52'8 8.2
2014-Jul-23 19:33N 54°32' E 018°38'3 3.2
2014-Jul-23 18:33N 54°32' E 018°33'0 0.0
2014-Jul-23 17:29N 54°32' E 018°33'0 0.0
2014-Jul-23 16:31N 54°32' E 018°33'0 0.0
2014-Jul-23 15:33N 54°32' E 018°33'0 0.0
2014-Jul-23 14:32N 54°32' E 018°33'0 0.0
2014-Jul-23 13:31N 54°32' E 018°33'0 0.0
2014-Jul-23 12:33N 54°32' E 018°33'0 0.0
2014-Jul-23 11:32N 54°32' E 018°33'0 0.0
2014-Jul-23 10:30N 54°32' E 018°33'0 0.0
2014-Jul-23 09:32N 54°32' E 018°33'0 0.0
2014-Jul-23 08:33N 54°32' E 018°33'1 0.6
2014-Jul-23 07:33N 54°32' E 018°34'9 9.5
2014-Jul-23 06:33N 54°34' E 018°50'10 9.5
2014-Jul-23 05:33N 54°42' E 018°57'9 8.6
2014-Jul-23 04:33N 54°50' E 018°50'10 9.7
2014-Jul-23 03:33N 54°55' E 018°36'9 9.1
2014-Jul-23 02:34N 54°55' E 018°21'9 9.3
2014-Jul-23 01:33N 54°54' E 018°04'9 9.2
2014-Jul-23 00:33N 54°54' E 017°48'9 9.3
2014-Jul-22 23:33N 54°53' E 017°32'9 9.3
2014-Jul-22 22:33N 54°52' E 017°16'22 9.3
2014-Jul-22 20:11N 54°47' E 016°39'6 9.4
2014-Jul-22 19:30N 54°45' E 016°28'9 9.5
2014-Jul-22 18:34N 54°41' E 016°14'9 9.4
2014-Jul-22 17:34N 54°36' E 016°00'18 9.1
2014-Jul-22 15:33N 54°27' E 015°33'9 8.9
2014-Jul-22 14:33N 54°23' E 015°20'9 9.3
2014-Jul-22 13:34N 54°18' E 015°06'9 9.5
2014-Jul-22 12:34N 54°13' E 014°53'10 9.6
2014-Jul-22 11:34N 54°08' E 014°38'10 9.7
2014-Jul-22 10:34N 54°03' E 014°24'8 8.1
2014-Jul-22 09:34N 53°57' E 014°16'6 6.3
2014-Jul-22 08:34N 53°50' E 014°18'9 9.4
2014-Jul-22 07:34N 53°43' E 014°28'13 9.4
2014-Jul-22 06:08N 53°31' E 014°38'5 8.1
2014-Jul-22 05:33N 53°26' E 014°36'2 0.3
2014-Jul-22 00:22N 53°25' E 014°36'0 0.0
2014-Jul-21 13:10N 53°25' E 014°36'0 0.0
2014-Jul-21 08:31N 53°25' E 014°36'0 0.0
2014-Jul-21 07:22N 53°25' E 014°36'0 0.0
2014-Jul-21 06:33N 53°25' E 014°36'0 0.0
2014-Jul-21 05:32N 53°25' E 014°36'0 0.0
2014-Jul-21 04:31N 53°25' E 014°36'0 0.0
2014-Jul-21 03:33N 53°25' E 014°36'0 0.0
2014-Jul-21 02:30N 53°25' E 014°36'0 0.0
2014-Jul-21 01:32N 53°25' E 014°36'0 0.0
2014-Jul-21 00:29N 53°25' E 014°36'0 0.0
2014-Jul-20 23:31N 53°25' E 014°36'0 0.0
2014-Jul-20 22:17N 53°25' E 014°36'0 0.0
2014-Jul-20 21:33N 53°25' E 014°36'0 0.0
2014-Jul-20 20:32N 53°25' E 014°36'0 0.0
2014-Jul-20 19:32N 53°25' E 014°36'0 0.0
2014-Jul-20 18:33N 53°25' E 014°36'0 0.0
2014-Jul-20 17:30N 53°25' E 014°36'0 0.0
2014-Jul-20 16:24N 53°25' E 014°36'0 0.0
2014-Jul-20 15:32N 53°25' E 014°36'0 0.0
2014-Jul-20 14:30N 53°25' E 014°36'0 0.0
2014-Jul-20 13:33N 53°25' E 014°36'0 0.0
2014-Jul-20 12:20N 53°25' E 014°36'3 4.2
2014-Jul-20 11:34N 53°28' E 014°36'9 8.3
2014-Jul-20 10:31N 53°37' E 014°35'9 9.2
2014-Jul-20 09:33N 53°44' E 014°27'9 9.1
2014-Jul-20 08:33N 53°51' E 014°17'7 7.3
2014-Jul-20 07:33N 53°58' E 014°16'9 9.1
2014-Jul-20 06:33N 54°07' E 014°13'9 8.6
2014-Jul-20 05:33N 54°15' E 014°08'9 8.7
2014-Jul-20 04:33N 54°21' E 013°57'9 8.9
2014-Jul-20 03:33N 54°29' E 013°49'9 9.1
2014-Jul-20 02:33N 54°36' E 013°42'9 9.0
2014-Jul-20 01:33N 54°44' E 013°34'9 9.2
2014-Jul-20 00:33N 54°52' E 013°26'10 9.5
2014-Jul-19 23:33N 55°00' E 013°17'10 9.7
2014-Jul-19 22:33N 55°07' E 013°05'9 9.5
2014-Jul-19 21:33N 55°14' E 012°53'9 9.4
2014-Jul-19 20:33N 55°18' E 012°38'9 8.9
2014-Jul-19 19:33N 55°27' E 012°40'  

Dump ship's entire track history